PWSweather.com
Personal Weather Stations
Station Observations
KILMORRI1
Goose Lake, Morris, IL 60450

Goose LakeMorris, IL 60450

Lat: 41.34, Lon: -88.3

Elevation: 523

Station Type:

www.gooselakeweather.com

High Low Average
Temperature -2.4°F-19.1°C -13.7°F-25.4°C -7.9°F-22.2°C
Dew Point -11.5°F-24.2°C -19.5°F-28.6°C -14.9°F-26.1°C
Winds 8.1 mph 13.0 kmh 1.2 mph 1.9 kmh 4.0 mph W6.4 kmh W
Wind Gusts 11.5 mph18.5 kmh 2.3 mph3.7 kmh 7.0 mph11.3 kmh
Humidity 75% 63% 71%
Pressure 30.84 in1044.4 mb 30.74 in1041.0 mb -
Precipitation 0.00 in0.0 mm - -
Hour Temp Dew Point Humidity Winds Wind Gusts Pressure Precip Precip Rate Daily Precip Total
12:00 AM -3.8°F-19.9°C -10.6°F-23.7°C 72% 3.5 mph W5.6 kmh W 5.8 mph9.3 kmh 30.74 in1041.0 mb - 0.00 in0.0 mm 0.00 in0.0 mm
12:10 AM -4.2°F-20.1°C -10.7°F-23.7°C 73% 2.3 mph W3.7 kmh W 2.3 mph3.7 kmh 30.74 in1041.0 mb - 0.00 in0.0 mm 0.00 in0.0 mm
12:20 AM -4.4°F-20.2°C -10.9°F-23.8°C 73% 4.6 mph WNW7.4 kmh WNW 6.9 mph11.1 kmh 30.74 in1041.0 mb - 0.00 in0.0 mm 0.00 in0.0 mm
12:30 AM -4.8°F-20.4°C -11.3°F-24.1°C 73% 4.6 mph W7.4 kmh W 5.8 mph9.3 kmh 30.74 in1041.0 mb - 0.00 in0.0 mm 0.00 in0.0 mm
12:40 AM -5.2°F-20.7°C -11.6°F-24.2°C 73% 3.5 mph W5.6 kmh W 4.6 mph7.4 kmh 30.74 in1041.0 mb - 0.00 in0.0 mm 0.00 in0.0 mm
12:50 AM -5.6°F-20.9°C -12.0°F-24.4°C 73% 4.6 mph W7.4 kmh W 4.6 mph7.4 kmh 30.74 in1041.0 mb - 0.00 in0.0 mm 0.00 in0.0 mm
01:00 AM -6.0°F-21.1°C -12.4°F-24.7°C 73% 3.5 mph W5.6 kmh W 4.6 mph7.4 kmh 30.74 in1041.0 mb - 0.00 in0.0 mm 0.00 in0.0 mm
01:10 AM -6.6°F-21.4°C -12.7°F-24.8°C 74% 4.6 mph W7.4 kmh W 6.9 mph11.1 kmh 30.75 in1041.3 mb - 0.00 in0.0 mm 0.00 in0.0 mm
01:20 AM -6.8°F-21.6°C -12.9°F-24.9°C 74% 3.5 mph W5.6 kmh W 3.5 mph5.6 kmh 30.74 in1041.0 mb - 0.00 in0.0 mm 0.00 in0.0 mm
01:30 AM -7.1°F-21.7°C -12.9°F-24.9°C 75% 2.3 mph W3.7 kmh W 3.5 mph5.6 kmh 30.75 in1041.3 mb - 0.00 in0.0 mm 0.00 in0.0 mm
01:40 AM -7.3°F-21.8°C -13.1°F-25.1°C 75% 2.3 mph WNW3.7 kmh WNW 3.5 mph5.6 kmh 30.75 in1041.3 mb - 0.00 in0.0 mm 0.00 in0.0 mm
01:50 AM -7.3°F-21.8°C -13.1°F-25.1°C 75% 3.5 mph WNW5.6 kmh WNW 3.5 mph5.6 kmh 30.75 in1041.3 mb - 0.00 in0.0 mm 0.00 in0.0 mm
02:00 AM -7.4°F-21.9°C -13.2°F-25.1°C 75% 2.3 mph WNW3.7 kmh WNW 4.6 mph7.4 kmh 30.75 in1041.3 mb - 0.00 in0.0 mm 0.00 in0.0 mm
02:10 AM -7.5°F-21.9°C -13.6°F-25.3°C 74% 3.5 mph W5.6 kmh W 4.6 mph7.4 kmh 30.76 in1041.7 mb - 0.00 in0.0 mm 0.00 in0.0 mm
02:20 AM -7.6°F-22.0°C -13.7°F-25.4°C 74% 5.8 mph WNW9.3 kmh WNW 8.1 mph13.0 kmh 30.76 in1041.7 mb - 0.00 in0.0 mm 0.00 in0.0 mm
02:30 AM -7.7°F-22.1°C -13.8°F-25.4°C 74% 4.6 mph WNW7.4 kmh WNW 8.1 mph13.0 kmh 30.76 in1041.7 mb - 0.00 in0.0 mm 0.00 in0.0 mm
02:40 AM -7.9°F-22.2°C -14.3°F-25.7°C 73% 5.8 mph WNW9.3 kmh WNW 9.2 mph14.8 kmh 30.76 in1041.7 mb - 0.00 in0.0 mm 0.00 in0.0 mm
02:50 AM -8.1°F-22.3°C -14.4°F-25.8°C 73% 3.5 mph W5.6 kmh W 5.8 mph9.3 kmh 30.76 in1041.7 mb - 0.00 in0.0 mm 0.00 in0.0 mm
03:00 AM -8.2°F-22.3°C -14.5°F-25.8°C 73% 3.5 mph W5.6 kmh W 4.6 mph7.4 kmh 30.77 in1042.0 mb - 0.00 in0.0 mm 0.00 in0.0 mm
03:10 AM -8.2°F-22.3°C -14.5°F-25.8°C 73% 3.5 mph W5.6 kmh W 4.6 mph7.4 kmh 30.77 in1042.0 mb - 0.00 in0.0 mm 0.00 in0.0 mm
03:20 AM -8.1°F-22.3°C -14.4°F-25.8°C 73% 4.6 mph WNW7.4 kmh WNW 6.9 mph11.1 kmh 30.77 in1042.0 mb - 0.00 in0.0 mm 0.00 in0.0 mm
03:30 AM -8.1°F-22.3°C -14.7°F-25.9°C 72% 3.5 mph W5.6 kmh W 4.6 mph7.4 kmh 30.77 in1042.0 mb - 0.00 in0.0 mm 0.00 in0.0 mm
03:40 AM -8.1°F-22.3°C -14.7°F-25.9°C 72% 3.5 mph WSW5.6 kmh WSW 9.2 mph14.8 kmh 30.77 in1042.0 mb - 0.00 in0.0 mm 0.00 in0.0 mm
03:50 AM -8.1°F-22.3°C -14.7°F-25.9°C 72% 3.5 mph WNW5.6 kmh WNW 5.8 mph9.3 kmh 30.77 in1042.0 mb - 0.00 in0.0 mm 0.00 in0.0 mm
04:00 AM -8.1°F-22.3°C -14.7°F-25.9°C 72% 4.6 mph WNW7.4 kmh WNW 6.9 mph11.1 kmh 30.77 in1042.0 mb - 0.00 in0.0 mm 0.00 in0.0 mm
04:10 AM -8.3°F-22.4°C -14.9°F-26.1°C 72% 4.6 mph W7.4 kmh W 8.1 mph13.0 kmh 30.77 in1042.0 mb - 0.00 in0.0 mm 0.00 in0.0 mm
04:20 AM -8.5°F-22.5°C -15.1°F-26.2°C 72% 3.5 mph W5.6 kmh W 3.5 mph5.6 kmh 30.77 in1042.0 mb - 0.00 in0.0 mm 0.00 in0.0 mm
04:30 AM -8.6°F-22.6°C -15.2°F-26.2°C 72% 2.3 mph W3.7 kmh W 5.8 mph9.3 kmh 30.77 in1042.0 mb - 0.00 in0.0 mm 0.00 in0.0 mm
04:40 AM -8.9°F-22.7°C -15.5°F-26.4°C 72% 4.6 mph WNW7.4 kmh WNW 10.4 mph16.7 kmh 30.77 in1042.0 mb - 0.00 in0.0 mm 0.00 in0.0 mm
04:50 AM -9.1°F-22.8°C -15.7°F-26.5°C 72% 4.6 mph W7.4 kmh W 6.9 mph11.1 kmh 30.77 in1042.0 mb - 0.00 in0.0 mm 0.00 in0.0 mm
05:00 AM -9.3°F-22.9°C -15.9°F-26.6°C 72% 4.6 mph WNW7.4 kmh WNW 8.1 mph13.0 kmh 30.77 in1042.0 mb - 0.00 in0.0 mm 0.00 in0.0 mm
05:10 AM -9.3°F-22.9°C -15.9°F-26.6°C 72% 3.5 mph WSW5.6 kmh WSW 3.5 mph5.6 kmh 30.77 in1042.0 mb - 0.00 in0.0 mm 0.00 in0.0 mm
05:20 AM -9.3°F-22.9°C -15.9°F-26.6°C 72% 4.6 mph WNW7.4 kmh WNW 8.1 mph13.0 kmh 30.77 in1042.0 mb - 0.00 in0.0 mm 0.00 in0.0 mm
05:30 AM -9.6°F-23.1°C -16.2°F-26.8°C 72% 4.6 mph WNW7.4 kmh WNW 9.2 mph14.8 kmh 30.77 in1042.0 mb - 0.00 in0.0 mm 0.00 in0.0 mm
05:40 AM -9.9°F-23.3°C -16.5°F-26.9°C 72% 3.5 mph W5.6 kmh W 3.5 mph5.6 kmh 30.77 in1042.0 mb - 0.00 in0.0 mm 0.00 in0.0 mm
05:50 AM -10.0°F-23.3°C -16.6°F-27.0°C 72% 3.5 mph WNW5.6 kmh WNW 4.6 mph7.4 kmh 30.77 in1042.0 mb - 0.00 in0.0 mm 0.00 in0.0 mm
06:00 AM -10.4°F-23.6°C -17.0°F-27.2°C 72% 3.5 mph WNW5.6 kmh WNW 3.5 mph5.6 kmh 30.78 in1042.3 mb - 0.00 in0.0 mm 0.00 in0.0 mm
06:10 AM -10.8°F-23.8°C -17.1°F-27.3°C 73% 3.5 mph WNW5.6 kmh WNW 5.8 mph9.3 kmh 30.78 in1042.3 mb - 0.00 in0.0 mm 0.00 in0.0 mm
06:20 AM -11.2°F-24.0°C -17.4°F-27.4°C 73% 3.5 mph W5.6 kmh W 8.1 mph13.0 kmh 30.78 in1042.3 mb - 0.00 in0.0 mm 0.00 in0.0 mm
06:30 AM -11.4°F-24.1°C -17.6°F-27.6°C 73% 3.5 mph WSW5.6 kmh WSW 5.8 mph9.3 kmh 30.78 in1042.3 mb - 0.00 in0.0 mm 0.00 in0.0 mm
06:40 AM -11.6°F-24.2°C -17.8°F-27.7°C 73% 4.6 mph W7.4 kmh W 4.6 mph7.4 kmh 30.79 in1042.7 mb - 0.00 in0.0 mm 0.00 in0.0 mm
06:50 AM -11.7°F-24.3°C -17.9°F-27.7°C 73% 4.6 mph W7.4 kmh W 4.6 mph7.4 kmh 30.79 in1042.7 mb - 0.00 in0.0 mm 0.00 in0.0 mm
07:00 AM -12.0°F-24.4°C -18.2°F-27.9°C 73% 2.3 mph WSW3.7 kmh WSW 6.9 mph11.1 kmh 30.79 in1042.7 mb - 0.00 in0.0 mm 0.00 in0.0 mm
07:10 AM -12.0°F-24.4°C -18.0°F-27.8°C 74% 3.5 mph WNW5.6 kmh WNW 8.1 mph13.0 kmh 30.79 in1042.7 mb - 0.00 in0.0 mm 0.00 in0.0 mm
07:20 AM -12.0°F-24.4°C -18.0°F-27.8°C 74% 4.6 mph WNW7.4 kmh WNW 9.2 mph14.8 kmh 30.79 in1042.7 mb - 0.00 in0.0 mm 0.00 in0.0 mm
07:30 AM -12.2°F-24.6°C -18.1°F-27.8°C 74% 4.6 mph W7.4 kmh W 8.1 mph13.0 kmh 30.80 in1043.0 mb - 0.00 in0.0 mm 0.00 in0.0 mm
07:40 AM -12.5°F-24.7°C -18.4°F-28.0°C 74% 3.5 mph W5.6 kmh W 6.9 mph11.1 kmh 30.79 in1042.7 mb - 0.00 in0.0 mm 0.00 in0.0 mm
07:50 AM -12.8°F-24.9°C -18.7°F-28.2°C 74% 3.5 mph WSW5.6 kmh WSW 3.5 mph5.6 kmh 30.79 in1042.7 mb - 0.00 in0.0 mm 0.00 in0.0 mm
08:00 AM -13.1°F-25.1°C -19.0°F-28.3°C 74% 3.5 mph WSW5.6 kmh WSW 5.8 mph9.3 kmh 30.79 in1042.7 mb - 0.00 in0.0 mm 0.00 in0.0 mm
08:10 AM -13.1°F-25.1°C -19.0°F-28.3°C 74% 3.5 mph W5.6 kmh W 3.5 mph5.6 kmh 30.80 in1043.0 mb - 0.00 in0.0 mm 0.00 in0.0 mm
08:20 AM -13.1°F-25.1°C -19.0°F-28.3°C 74% 2.3 mph W3.7 kmh W 6.9 mph11.1 kmh 30.80 in1043.0 mb - 0.00 in0.0 mm 0.00 in0.0 mm
08:30 AM -13.1°F-25.1°C -19.0°F-28.3°C 74% 2.3 mph W3.7 kmh W 5.8 mph9.3 kmh 30.80 in1043.0 mb - 0.00 in0.0 mm 0.00 in0.0 mm
08:40 AM -13.7°F-25.4°C -19.3°F-28.5°C 75% 2.3 mph W3.7 kmh W 5.8 mph9.3 kmh 30.80 in1043.0 mb - 0.00 in0.0 mm 0.00 in0.0 mm
08:50 AM -13.6°F-25.3°C -19.5°F-28.6°C 74% 2.3 mph W3.7 kmh W 4.6 mph7.4 kmh 30.80 in1043.0 mb - 0.00 in0.0 mm 0.00 in0.0 mm
09:00 AM -13.4°F-25.2°C -19.3°F-28.5°C 74% 3.5 mph WSW5.6 kmh WSW 8.1 mph13.0 kmh 30.81 in1043.3 mb - 0.00 in0.0 mm 0.00 in0.0 mm
09:10 AM -13.0°F-25.0°C -18.9°F-28.3°C 74% 4.6 mph WNW7.4 kmh WNW 5.8 mph9.3 kmh 30.81 in1043.3 mb - 0.00 in0.0 mm 0.00 in0.0 mm
09:20 AM -12.5°F-24.7°C -18.7°F-28.2°C 73% 3.5 mph W5.6 kmh W 8.1 mph13.0 kmh 30.82 in1043.7 mb - 0.00 in0.0 mm 0.00 in0.0 mm
09:30 AM -12.1°F-24.5°C -18.6°F-28.1°C 72% 4.6 mph WNW7.4 kmh WNW 4.6 mph7.4 kmh 30.82 in1043.7 mb - 0.00 in0.0 mm 0.00 in0.0 mm
09:40 AM -11.8°F-24.3°C -18.3°F-27.9°C 72% 3.5 mph WNW5.6 kmh WNW 5.8 mph9.3 kmh 30.82 in1043.7 mb - 0.00 in0.0 mm 0.00 in0.0 mm
09:50 AM -11.4°F-24.1°C -18.2°F-27.9°C 71% 5.8 mph WNW9.3 kmh WNW 8.1 mph13.0 kmh 30.82 in1043.7 mb - 0.00 in0.0 mm 0.00 in0.0 mm
10:00 AM -10.9°F-23.8°C -18.0°F-27.8°C 70% 5.8 mph WNW9.3 kmh WNW 9.2 mph14.8 kmh 30.82 in1043.7 mb - 0.00 in0.0 mm 0.00 in0.0 mm
10:10 AM -10.4°F-23.6°C -17.5°F-27.5°C 70% 5.8 mph W9.3 kmh W 9.2 mph14.8 kmh 30.82 in1043.7 mb - 0.00 in0.0 mm 0.00 in0.0 mm
10:20 AM -9.8°F-23.2°C -17.2°F-27.3°C 69% 4.6 mph W7.4 kmh W 6.9 mph11.1 kmh 30.82 in1043.7 mb - 0.00 in0.0 mm 0.00 in0.0 mm
10:30 AM -9.4°F-23.0°C -17.1°F-27.3°C 68% 3.5 mph NW5.6 kmh NW 10.4 mph16.7 kmh 30.83 in1044.0 mb - 0.00 in0.0 mm 0.00 in0.0 mm
10:40 AM -9.2°F-22.9°C -16.9°F-27.2°C 68% 4.6 mph WNW7.4 kmh WNW 10.4 mph16.7 kmh 30.83 in1044.0 mb - 0.00 in0.0 mm 0.00 in0.0 mm
10:50 AM -8.6°F-22.6°C -16.3°F-26.8°C 68% 4.6 mph W7.4 kmh W 5.8 mph9.3 kmh 30.83 in1044.0 mb - 0.00 in0.0 mm 0.00 in0.0 mm
11:00 AM -8.5°F-22.5°C -16.3°F-26.8°C 68% 3.5 mph W5.6 kmh W 5.8 mph9.3 kmh 30.84 in1044.4 mb - 0.00 in0.0 mm 0.00 in0.0 mm
11:10 AM -8.1°F-22.3°C -16.1°F-26.7°C 67% 6.9 mph WNW11.1 kmh WNW 10.4 mph16.7 kmh 30.84 in1044.4 mb - 0.00 in0.0 mm 0.00 in0.0 mm
11:20 AM -7.7°F-22.1°C -15.8°F-26.6°C 67% 4.6 mph WNW7.4 kmh WNW 6.9 mph11.1 kmh 30.84 in1044.4 mb - 0.00 in0.0 mm 0.00 in0.0 mm
11:30 AM -7.4°F-21.9°C -15.4°F-26.3°C 67% 4.6 mph NW7.4 kmh NW 8.1 mph13.0 kmh 30.83 in1044.0 mb - 0.00 in0.0 mm 0.00 in0.0 mm
11:40 AM -6.6°F-21.4°C -15.0°F-26.1°C 66% 6.9 mph WNW11.1 kmh WNW 11.5 mph18.5 kmh 30.83 in1044.0 mb - 0.00 in0.0 mm 0.00 in0.0 mm
11:50 AM -6.3°F-21.3°C -14.7°F-25.9°C 66% 5.8 mph NW9.3 kmh NW 6.9 mph11.1 kmh 30.83 in1044.0 mb - 0.00 in0.0 mm 0.00 in0.0 mm
12:00 PM -5.7°F-20.9°C -14.1°F-25.6°C 66% 6.9 mph NW11.1 kmh NW 8.1 mph13.0 kmh 30.83 in1044.0 mb - 0.00 in0.0 mm 0.00 in0.0 mm
12:10 PM -5.1°F-20.6°C -13.5°F-25.3°C 66% 6.9 mph WNW11.1 kmh WNW 9.2 mph14.8 kmh 30.82 in1043.7 mb - 0.00 in0.0 mm 0.00 in0.0 mm
12:20 PM -5.2°F-20.7°C -13.9°F-25.5°C 65% 4.6 mph W7.4 kmh W 6.9 mph11.1 kmh 30.82 in1043.7 mb - 0.00 in0.0 mm 0.00 in0.0 mm
12:30 PM -4.9°F-20.5°C -13.7°F-25.4°C 65% 4.6 mph W7.4 kmh W 8.1 mph13.0 kmh 30.82 in1043.7 mb - 0.00 in0.0 mm 0.00 in0.0 mm
12:40 PM -4.5°F-20.3°C -13.3°F-25.2°C 65% 8.1 mph W13.0 kmh W 10.4 mph16.7 kmh 30.81 in1043.3 mb - 0.00 in0.0 mm 0.00 in0.0 mm
12:50 PM -4.4°F-20.2°C -13.2°F-25.1°C 65% 5.8 mph NW9.3 kmh NW 8.1 mph13.0 kmh 30.80 in1043.0 mb - 0.00 in0.0 mm 0.00 in0.0 mm
01:00 PM -4.2°F-20.1°C -13.3°F-25.2°C 64% 5.8 mph W9.3 kmh W 6.9 mph11.1 kmh 30.80 in1043.0 mb - 0.00 in0.0 mm 0.00 in0.0 mm
01:10 PM -3.4°F-19.7°C -12.6°F-24.8°C 64% 5.8 mph W9.3 kmh W 10.4 mph16.7 kmh 30.80 in1043.0 mb - 0.00 in0.0 mm 0.00 in0.0 mm
01:20 PM -2.9°F-19.4°C -12.1°F-24.5°C 64% 6.9 mph NW11.1 kmh NW 10.4 mph16.7 kmh 30.80 in1043.0 mb - 0.00 in0.0 mm 0.00 in0.0 mm
01:30 PM -3.0°F-19.4°C -12.5°F-24.7°C 63% 2.3 mph WNW3.7 kmh WNW 9.2 mph14.8 kmh 30.80 in1043.0 mb - 0.00 in0.0 mm 0.00 in0.0 mm
01:40 PM -2.4°F-19.1°C -11.6°F-24.2°C 64% 2.3 mph NW3.7 kmh NW 3.5 mph5.6 kmh 30.79 in1042.7 mb - 0.00 in0.0 mm 0.00 in0.0 mm
01:50 PM -3.2°F-19.6°C -12.7°F-24.8°C 63% 5.8 mph WSW9.3 kmh WSW 9.2 mph14.8 kmh 30.79 in1042.7 mb - 0.00 in0.0 mm 0.00 in0.0 mm
02:00 PM -3.2°F-19.6°C -12.4°F-24.7°C 64% 4.6 mph W7.4 kmh W 9.2 mph14.8 kmh 30.79 in1042.7 mb - 0.00 in0.0 mm 0.00 in0.0 mm
02:10 PM -3.3°F-19.6°C -12.5°F-24.7°C 64% 5.8 mph WSW9.3 kmh WSW 9.2 mph14.8 kmh 30.79 in1042.7 mb - 0.00 in0.0 mm 0.00 in0.0 mm
02:20 PM -3.0°F-19.4°C -12.1°F-24.5°C 64% 4.6 mph W7.4 kmh W 9.2 mph14.8 kmh 30.79 in1042.7 mb - 0.00 in0.0 mm 0.00 in0.0 mm
02:30 PM -3.4°F-19.7°C -12.2°F-24.6°C 65% 4.6 mph W7.4 kmh W 8.1 mph13.0 kmh 30.79 in1042.7 mb - 0.00 in0.0 mm 0.00 in0.0 mm
02:40 PM -2.6°F-19.2°C -11.5°F-24.2°C 65% 4.6 mph WNW7.4 kmh WNW 9.2 mph14.8 kmh 30.79 in1042.7 mb - 0.00 in0.0 mm 0.00 in0.0 mm
02:50 PM -3.0°F-19.4°C -12.2°F-24.6°C 64% 4.6 mph NW7.4 kmh NW 9.2 mph14.8 kmh 30.79 in1042.7 mb - 0.00 in0.0 mm 0.00 in0.0 mm
03:00 PM -3.0°F-19.4°C -11.9°F-24.4°C 65% 4.6 mph WNW7.4 kmh WNW 8.1 mph13.0 kmh 30.79 in1042.7 mb - 0.00 in0.0 mm 0.00 in0.0 mm
03:10 PM -3.2°F-19.6°C -12.0°F-24.4°C 65% 2.3 mph WNW3.7 kmh WNW 4.6 mph7.4 kmh 30.79 in1042.7 mb - 0.00 in0.0 mm 0.00 in0.0 mm
03:20 PM -3.1°F-19.5°C -12.0°F-24.4°C 65% 6.9 mph W11.1 kmh W 10.4 mph16.7 kmh 30.79 in1042.7 mb - 0.00 in0.0 mm 0.00 in0.0 mm
03:30 PM -3.4°F-19.7°C -12.2°F-24.6°C 65% 5.8 mph WNW9.3 kmh WNW 6.9 mph11.1 kmh 30.79 in1042.7 mb - 0.00 in0.0 mm 0.00 in0.0 mm
03:40 PM -3.1°F-19.5°C -12.0°F-24.4°C 65% 3.5 mph WNW5.6 kmh WNW 9.2 mph14.8 kmh 30.79 in1042.7 mb - 0.00 in0.0 mm 0.00 in0.0 mm
03:50 PM -3.5°F-19.7°C -12.3°F-24.6°C 65% 4.6 mph W7.4 kmh W 4.6 mph7.4 kmh 30.80 in1043.0 mb - 0.00 in0.0 mm 0.00 in0.0 mm
04:00 PM -2.9°F-19.4°C -11.5°F-24.2°C 66% 4.6 mph WNW7.4 kmh WNW 4.6 mph7.4 kmh 30.79 in1042.7 mb - 0.00 in0.0 mm 0.00 in0.0 mm
04:10 PM -3.4°F-19.7°C -11.9°F-24.4°C 66% 2.3 mph NW3.7 kmh NW 3.5 mph5.6 kmh 30.80 in1043.0 mb - 0.00 in0.0 mm 0.00 in0.0 mm
04:20 PM -4.0°F-20.0°C -12.5°F-24.7°C 66% 5.8 mph WNW9.3 kmh WNW 8.1 mph13.0 kmh 30.80 in1043.0 mb - 0.00 in0.0 mm 0.00 in0.0 mm
04:30 PM -4.2°F-20.1°C -12.4°F-24.7°C 67% 6.9 mph WNW11.1 kmh WNW 11.5 mph18.5 kmh 30.80 in1043.0 mb - 0.00 in0.0 mm 0.00 in0.0 mm
04:40 PM -4.7°F-20.4°C -12.6°F-24.8°C 68% 4.6 mph WNW7.4 kmh WNW 10.4 mph16.7 kmh 30.80 in1043.0 mb - 0.00 in0.0 mm 0.00 in0.0 mm
04:50 PM -5.0°F-20.6°C -12.9°F-24.9°C 68% 3.5 mph WNW5.6 kmh WNW 5.8 mph9.3 kmh 30.81 in1043.3 mb - 0.00 in0.0 mm 0.00 in0.0 mm
05:00 PM -5.6°F-20.9°C -13.4°F-25.2°C 68% 4.6 mph W7.4 kmh W 8.1 mph13.0 kmh 30.81 in1043.3 mb - 0.00 in0.0 mm 0.00 in0.0 mm
05:10 PM -5.9°F-21.1°C -13.4°F-25.2°C 69% 5.8 mph W9.3 kmh W 8.1 mph13.0 kmh 30.81 in1043.3 mb - 0.00 in0.0 mm 0.00 in0.0 mm
05:20 PM -6.4°F-21.3°C -13.6°F-25.3°C 70% 3.5 mph W5.6 kmh W 9.2 mph14.8 kmh 30.81 in1043.3 mb - 0.00 in0.0 mm 0.00 in0.0 mm
05:30 PM -6.7°F-21.5°C -13.9°F-25.5°C 70% 4.6 mph W7.4 kmh W 6.9 mph11.1 kmh 30.81 in1043.3 mb - 0.00 in0.0 mm 0.00 in0.0 mm
05:40 PM -7.1°F-21.7°C -14.0°F-25.6°C 71% 3.5 mph W5.6 kmh W 5.8 mph9.3 kmh 30.81 in1043.3 mb - 0.00 in0.0 mm 0.00 in0.0 mm
05:50 PM -7.3°F-21.8°C -14.2°F-25.7°C 71% 4.6 mph W7.4 kmh W 6.9 mph11.1 kmh 30.81 in1043.3 mb - 0.00 in0.0 mm 0.00 in0.0 mm
06:00 PM -7.6°F-22.0°C -14.2°F-25.7°C 72% 4.6 mph SW7.4 kmh SW 5.8 mph9.3 kmh 30.81 in1043.3 mb - 0.00 in0.0 mm 0.00 in0.0 mm
06:10 PM -7.8°F-22.1°C -14.4°F-25.8°C 72% 3.5 mph W5.6 kmh W 5.8 mph9.3 kmh 30.82 in1043.7 mb - 0.00 in0.0 mm 0.00 in0.0 mm
06:20 PM -7.8°F-22.1°C -14.4°F-25.8°C 72% 4.6 mph W7.4 kmh W 6.9 mph11.1 kmh 30.82 in1043.7 mb - 0.00 in0.0 mm 0.00 in0.0 mm
06:30 PM -7.9°F-22.2°C -14.5°F-25.8°C 72% 4.6 mph W7.4 kmh W 4.6 mph7.4 kmh 30.82 in1043.7 mb - 0.00 in0.0 mm 0.00 in0.0 mm
06:40 PM -7.8°F-22.1°C -14.4°F-25.8°C 72% 5.8 mph WSW9.3 kmh WSW 9.2 mph14.8 kmh 30.82 in1043.7 mb - 0.00 in0.0 mm 0.00 in0.0 mm
06:50 PM -8.0°F-22.2°C -14.6°F-25.9°C 72% 4.6 mph W7.4 kmh W 6.9 mph11.1 kmh 30.82 in1043.7 mb - 0.00 in0.0 mm 0.00 in0.0 mm
07:00 PM -7.9°F-22.2°C -14.5°F-25.8°C 72% 3.5 mph W5.6 kmh W 3.5 mph5.6 kmh 30.82 in1043.7 mb - 0.00 in0.0 mm 0.00 in0.0 mm
07:10 PM -8.1°F-22.3°C -14.7°F-25.9°C 72% 3.5 mph WSW5.6 kmh WSW 5.8 mph9.3 kmh 30.82 in1043.7 mb - 0.00 in0.0 mm 0.00 in0.0 mm
07:20 PM -8.1°F-22.3°C -14.7°F-25.9°C 72% 4.6 mph WSW7.4 kmh WSW 8.1 mph13.0 kmh 30.82 in1043.7 mb - 0.00 in0.0 mm 0.00 in0.0 mm
07:30 PM -8.1°F-22.3°C -14.7°F-25.9°C 72% 4.6 mph W7.4 kmh W 6.9 mph11.1 kmh 30.82 in1043.7 mb - 0.00 in0.0 mm 0.00 in0.0 mm
07:40 PM -8.1°F-22.3°C -14.8°F-26.0°C 72% 4.6 mph WNW7.4 kmh WNW 8.1 mph13.0 kmh 30.82 in1043.7 mb - 0.00 in0.0 mm 0.00 in0.0 mm
07:50 PM -8.1°F-22.3°C -14.7°F-25.9°C 72% 5.8 mph W9.3 kmh W 11.5 mph18.5 kmh 30.82 in1043.7 mb - 0.00 in0.0 mm 0.00 in0.0 mm
08:00 PM -8.2°F-22.3°C -14.8°F-26.0°C 72% 2.3 mph W3.7 kmh W 5.8 mph9.3 kmh 30.82 in1043.7 mb - 0.00 in0.0 mm 0.00 in0.0 mm
08:10 PM -8.2°F-22.3°C -14.8°F-26.0°C 72% 3.5 mph WSW5.6 kmh WSW 6.9 mph11.1 kmh 30.82 in1043.7 mb - 0.00 in0.0 mm 0.00 in0.0 mm
08:20 PM -8.3°F-22.4°C -14.6°F-25.9°C 73% 4.6 mph WSW7.4 kmh WSW 5.8 mph9.3 kmh 30.82 in1043.7 mb - 0.00 in0.0 mm 0.00 in0.0 mm
08:30 PM -8.1°F-22.3°C -14.7°F-25.9°C 72% 4.6 mph W7.4 kmh W 6.9 mph11.1 kmh 30.82 in1043.7 mb - 0.00 in0.0 mm 0.00 in0.0 mm
08:40 PM -8.2°F-22.3°C -14.8°F-26.0°C 72% 4.6 mph W7.4 kmh W 6.9 mph11.1 kmh 30.82 in1043.7 mb - 0.00 in0.0 mm 0.00 in0.0 mm
08:50 PM -8.1°F-22.3°C -14.4°F-25.8°C 73% 4.6 mph W7.4 kmh W 6.9 mph11.1 kmh 30.82 in1043.7 mb - 0.00 in0.0 mm 0.00 in0.0 mm
09:00 PM -8.1°F-22.3°C -14.4°F-25.8°C 73% 2.3 mph W3.7 kmh W 4.6 mph7.4 kmh 30.82 in1043.7 mb - 0.00 in0.0 mm 0.00 in0.0 mm
09:10 PM -8.1°F-22.3°C -14.4°F-25.8°C 73% 3.5 mph W5.6 kmh W 6.9 mph11.1 kmh 30.82 in1043.7 mb - 0.00 in0.0 mm 0.00 in0.0 mm
09:20 PM -8.1°F-22.3°C -14.4°F-25.8°C 73% 4.6 mph W7.4 kmh W 8.1 mph13.0 kmh 30.82 in1043.7 mb - 0.00 in0.0 mm 0.00 in0.0 mm
09:30 PM -8.2°F-22.3°C -14.5°F-25.8°C 73% 2.3 mph W3.7 kmh W 4.6 mph7.4 kmh 30.82 in1043.7 mb - 0.00 in0.0 mm 0.00 in0.0 mm
09:40 PM -7.9°F-22.2°C -14.3°F-25.7°C 73% 3.5 mph W5.6 kmh W 4.6 mph7.4 kmh 30.81 in1043.3 mb - 0.00 in0.0 mm 0.00 in0.0 mm
09:50 PM -8.0°F-22.2°C -14.4°F-25.8°C 73% 4.6 mph W7.4 kmh W 5.8 mph9.3 kmh 30.81 in1043.3 mb - 0.00 in0.0 mm 0.00 in0.0 mm
10:00 PM -8.0°F-22.2°C -14.3°F-25.7°C 73% 2.3 mph W3.7 kmh W 4.6 mph7.4 kmh 30.81 in1043.3 mb - 0.00 in0.0 mm 0.00 in0.0 mm
10:10 PM -8.0°F-22.2°C -14.4°F-25.8°C 73% 4.6 mph W7.4 kmh W 6.9 mph11.1 kmh 30.81 in1043.3 mb - 0.00 in0.0 mm 0.00 in0.0 mm
10:20 PM -8.1°F-22.3°C -14.4°F-25.8°C 73% 2.3 mph WSW3.7 kmh WSW 4.6 mph7.4 kmh 30.81 in1043.3 mb - 0.00 in0.0 mm 0.00 in0.0 mm
10:30 PM -8.2°F-22.3°C -14.5°F-25.8°C 73% 3.5 mph WSW5.6 kmh WSW 6.9 mph11.1 kmh 30.81 in1043.3 mb - 0.00 in0.0 mm 0.00 in0.0 mm
10:40 PM -8.4°F-22.4°C -14.5°F-25.8°C 74% 2.3 mph WSW3.7 kmh WSW 3.5 mph5.6 kmh 30.81 in1043.3 mb - 0.00 in0.0 mm 0.00 in0.0 mm
10:50 PM -8.6°F-22.6°C -14.9°F-26.1°C 73% 2.3 mph WSW3.7 kmh WSW 3.5 mph5.6 kmh 30.81 in1043.3 mb - 0.00 in0.0 mm 0.00 in0.0 mm
11:00 PM -8.6°F-22.6°C -14.6°F-25.9°C 74% 2.3 mph WSW3.7 kmh WSW 4.6 mph7.4 kmh 30.81 in1043.3 mb - 0.00 in0.0 mm 0.00 in0.0 mm
11:10 PM -8.7°F-22.6°C -14.8°F-26.0°C 74% 3.5 mph WSW5.6 kmh WSW 5.8 mph9.3 kmh 30.81 in1043.3 mb - 0.00 in0.0 mm 0.00 in0.0 mm
11:20 PM -8.7°F-22.6°C -14.8°F-26.0°C 74% 3.5 mph WSW5.6 kmh WSW 6.9 mph11.1 kmh 30.81 in1043.3 mb - 0.00 in0.0 mm 0.00 in0.0 mm
11:30 PM -8.7°F-22.6°C -14.8°F-26.0°C 74% 3.5 mph WSW5.6 kmh WSW 4.6 mph7.4 kmh 30.80 in1043.0 mb - 0.00 in0.0 mm 0.00 in0.0 mm
11:40 PM -8.8°F-22.7°C -14.9°F-26.1°C 74% 3.5 mph WSW5.6 kmh WSW 6.9 mph11.1 kmh 30.81 in1043.3 mb - 0.00 in0.0 mm 0.00 in0.0 mm
11:50 PM -8.9°F-22.7°C -14.9°F-26.1°C 74% 4.6 mph WSW7.4 kmh WSW 6.9 mph11.1 kmh 30.81 in1043.3 mb - 0.00 in0.0 mm 0.00 in0.0 mm